Time;durP1;ratioP1;P1;durP2;ratioP2;P2;SDS_P1;SDS_P2;PMS_P1;PMS_P2;Temp;Humidity;BMP_temperature;BMP_pressure;BME280_temperature;BME280_humidity;BME280_pressure;Samples;Min_cycle;Max_cycle;Signal;HPM_P1;HPM_P2
2023/03/27 00:01:10;;;;;;;0.50;0.30;;;11.00;65.80;10.80;95116.00;;;;5117883;28;20262;-79
2023/03/27 00:03:41;;;;;;;0.23;0.23;;;11.00;65.70;10.80;95111.00;;;;5108380;28;20195;-81
2023/03/27 00:06:15;;;;;;;0.20;0.20;;;11.00;65.70;10.80;95109.00;;;;5115276;28;20259;-81
2023/03/27 00:08:42;;;;;;;0.30;0.30;;;11.00;65.80;10.70;95107.00;;;;5115986;28;20580;-80
2023/03/27 00:11:10;;;;;;;0.30;0.20;;;11.00;65.70;10.70;95113.00;;;;5115969;28;20214;-80
2023/03/27 00:13:38;;;;;;;0.53;0.43;;;11.00;65.70;10.70;95120.00;;;;5134128;28;20225;-80
2023/03/27 00:16:10;;;;;;;0.77;0.20;;;10.90;65.70;10.70;95115.00;;;;5128543;27;20623;-81
2023/03/27 00:18:38;;;;;;;0.20;0.20;;;10.90;65.70;10.70;95123.00;;;;5130873;27;20207;-80
2023/03/27 00:21:06;;;;;;;0.33;0.20;;;10.90;65.70;10.60;95125.00;;;;5118996;28;20805;-81
2023/03/27 00:23:35;;;;;;;0.20;0.20;;;10.90;65.80;10.60;95115.00;;;;5118719;27;20195;-81
2023/03/27 00:26:03;;;;;;;0.43;0.43;;;10.90;65.90;10.60;95115.00;;;;5119101;28;20284;-81
2023/03/27 00:28:30;;;;;;;0.77;0.40;;;10.80;65.80;10.60;95120.00;;;;5113032;28;20219;-81
2023/03/27 00:30:58;;;;;;;0.10;0.10;;;10.80;65.80;10.60;95116.00;;;;5131886;27;20194;-81
2023/03/27 00:33:27;;;;;;;0.20;0.20;;;10.80;65.80;10.60;95115.00;;;;5123437;28;20198;-80
2023/03/27 00:35:57;;;;;;;0.43;0.20;;;10.80;65.90;10.50;95116.00;;;;5103801;28;20226;-79
2023/03/27 00:38:25;;;;;;;0.23;0.23;;;10.70;65.90;10.50;95112.00;;;;5119640;28;20187;-80
2023/03/27 00:40:54;;;;;;;0.30;0.30;;;10.80;66.00;10.50;95116.00;;;;5087275;28;20207;-80
2023/03/27 00:43:25;;;;;;;0.23;0.23;;;10.70;66.00;10.50;95115.00;;;;5122582;27;20201;-81
2023/03/27 00:46:00;;;;;;;0.17;0.17;;;10.70;66.80;10.50;95116.00;;;;5129779;27;20218;-81
2023/03/27 00:48:32;;;;;;;0.20;0.20;;;10.70;66.10;10.50;95116.00;;;;5124250;27;20226;-80
2023/03/27 00:50:59;;;;;;;0.77;0.10;;;10.70;66.10;10.50;95121.00;;;;5121537;28;20229;-80
2023/03/27 00:53:30;;;;;;;0.23;0.23;;;10.70;66.40;10.50;95133.00;;;;5124469;27;20213;-81
2023/03/27 00:56:03;;;;;;;0.87;0.20;;;10.70;66.20;10.60;95130.00;;;;5129351;27;20288;-81
2023/03/27 00:58:39;;;;;;;0.40;0.30;;;10.70;66.30;10.60;95133.00;;;;5125625;28;20614;-81
2023/03/27 01:01:09;;;;;;;0.30;0.30;;;10.80;66.40;10.60;95130.00;;;;5121412;28;20222;-81
2023/03/27 01:03:40;;;;;;;0.80;0.30;;;10.80;66.40;10.70;95125.00;;;;5131363;27;20286;-81
2023/03/27 01:06:12;;;;;;;0.20;0.20;;;10.80;66.40;10.70;95115.00;;;;5097313;28;20213;-80
2023/03/27 01:08:43;;;;;;;0.40;0.30;;;10.80;66.40;10.70;95127.00;;;;5111697;28;20587;-80
2023/03/27 01:11:25;;;;;;;0.40;0.40;;;10.80;66.40;10.70;95124.00;;;;5120100;27;20715;-81
2023/03/27 01:14:08;;;;;;;0.10;0.10;;;10.80;66.60;10.80;95131.00;;;;5121694;27;20194;-80
2023/03/27 01:16:49;;;;;;;0.50;0.20;;;10.90;66.80;10.80;95116.00;;;;5117168;27;20214;-80
2023/03/27 01:20:31;;;;;;;0.23;0.23;;;10.90;67.00;10.70;95122.00;;;;5119754;27;20301;-80
2023/03/27 01:23:49;;;;;;;0.20;0.20;;;10.90;67.70;10.70;95110.00;;;;5034997;28;20205;-80
2023/03/27 01:27:00;;;;;;;0.20;0.20;;;10.90;68.00;10.70;95113.00;;;;4997174;28;20809;-81
2023/03/27 01:29:57;;;;;;;0.70;0.33;;;10.90;67.80;10.70;95126.00;;;;5090369;28;20274;-80
2023/03/27 01:33:17;;;;;;;0.20;0.20;;;10.90;67.70;10.70;95121.00;;;;5124061;27;20285;-80
2023/03/27 01:36:23;;;;;;;0.30;0.30;;;10.90;68.10;10.60;95118.00;;;;5111580;27;20200;-81
2023/03/27 01:39:31;;;;;;;0.20;0.20;;;10.80;67.90;10.60;95112.00;;;;5105679;27;20306;-80
2023/03/27 01:42:13;;;;;;;0.67;0.33;;;10.90;68.00;10.60;95124.00;;;;5122514;27;20276;-79
2023/03/27 01:44:50;;;;;;;0.20;0.20;;;10.80;67.60;10.60;95121.00;;;;5133224;27;20269;-79
2023/03/27 01:47:32;;;;;;;0.37;0.30;;;10.80;67.80;10.60;95121.00;;;;5102270;27;20647;-81
2023/03/27 01:50:10;;;;;;;0.30;0.30;;;10.80;68.00;10.50;95125.00;;;;5111516;28;20218;-80
2023/03/27 01:52:44;;;;;;;0.50;0.30;;;10.80;68.20;10.60;95138.00;;;;5135827;27;20713;-80
2023/03/27 01:55:19;;;;;;;0.67;0.20;;;10.80;68.20;10.60;95133.00;;;;5137265;27;20190;-80
2023/03/27 01:57:59;;;;;;;0.10;0.10;;;10.80;68.40;10.60;95134.00;;;;5125811;27;20194;-80
2023/03/27 02:00:28;;;;;;;0.20;0.20;;;10.70;68.50;10.60;95139.00;;;;5135495;27;20216;-80
2023/03/27 02:03:01;;;;;;;0.53;0.33;;;10.70;68.50;10.60;95143.00;;;;5125497;27;20646;-80
2023/03/27 02:05:35;;;;;;;0.20;0.20;;;10.80;68.60;10.60;95142.00;;;;5133554;27;20210;-80
2023/03/27 02:08:11;;;;;;;0.20;0.20;;;10.70;68.50;10.60;95142.00;;;;5132711;27;20222;-80
2023/03/27 02:10:49;;;;;;;0.30;0.20;;;10.80;68.50;10.60;95136.00;;;;5125951;27;20623;-80
2023/03/27 02:13:25;;;;;;;0.20;0.10;;;10.80;69.40;10.60;95137.00;;;;5122322;27;20202;-80
2023/03/27 02:15:57;;;;;;;0.17;0.17;;;10.80;68.80;10.60;95141.00;;;;5099836;28;20194;-80
2023/03/27 02:18:32;;;;;;;0.20;0.20;;;10.80;68.80;10.60;95143.00;;;;5122462;27;20194;-80
2023/03/27 02:21:01;;;;;;;0.23;0.10;;;10.80;69.00;10.70;95141.00;;;;5110034;27;20666;-81
2023/03/27 02:23:29;;;;;;;0.30;0.20;;;10.80;69.00;10.70;95137.00;;;;5129282;27;20218;-80
2023/03/27 02:26:00;;;;;;;0.60;0.30;;;10.80;68.90;10.70;95138.00;;;;5122549;27;20190;-80
2023/03/27 02:28:48;;;;;;;0.30;0.20;;;10.80;69.10;10.60;95145.00;;;;5131256;27;20211;-79
2023/03/27 02:31:44;;;;;;;1.70;0.17;;;10.80;69.20;10.60;95150.00;;;;5124535;27;20566;-80
2023/03/27 02:34:34;;;;;;;0.13;0.13;;;10.80;69.20;10.60;95152.00;;;;5128018;27;20198;-80
2023/03/27 02:37:15;;;;;;;0.83;0.20;;;10.80;69.20;10.60;95154.00;;;;5127146;27;20286;-79
2023/03/27 02:39:56;;;;;;;0.20;0.20;;;10.80;69.30;10.60;95158.00;;;;5105017;28;20248;-80
2023/03/27 02:42:38;;;;;;;0.70;0.30;;;10.80;69.50;10.60;95169.00;;;;5104151;28;20201;-79
2023/03/27 02:45:16;;;;;;;0.20;0.20;;;10.80;69.60;10.60;95153.00;;;;5121294;27;20214;-79
2023/03/27 02:47:51;;;;;;;0.50;0.40;;;10.70;69.60;10.60;95158.00;;;;5112956;27;20214;-79
2023/03/27 02:50:26;;;;;;;0.70;0.20;;;10.80;69.80;10.60;95167.00;;;;5096881;28;20218;-79
2023/03/27 02:53:00;;;;;;;0.40;0.40;;;10.70;69.90;10.60;95169.00;;;;5117738;27;20862;-79
2023/03/27 02:55:33;;;;;;;0.20;0.20;;;10.70;70.10;10.60;95175.00;;;;5137628;27;20194;-79
2023/03/27 02:58:06;;;;;;;0.20;0.20;;;10.70;70.00;10.60;95174.00;;;;5131112;27;20207;-80
2023/03/27 03:00:40;;;;;;;0.50;0.20;;;10.70;70.20;10.60;95164.00;;;;5109285;28;20274;-79
2023/03/27 03:03:17;;;;;;;0.20;0.20;;;10.80;70.20;10.60;95163.00;;;;5125876;27;20182;-80
2023/03/27 03:05:45;;;;;;;0.23;0.23;;;10.80;70.30;10.60;95173.00;;;;5135358;27;20664;-80
2023/03/27 03:08:13;;;;;;;0.37;0.30;;;10.70;70.40;10.60;95182.00;;;;5118697;28;20261;-79
2023/03/27 03:10:46;;;;;;;0.20;0.20;;;10.70;70.40;10.60;95177.00;;;;5131325;27;20274;-80
2023/03/27 03:13:16;;;;;;;0.30;0.30;;;10.70;70.70;10.60;95188.00;;;;5118384;27;20197;-80
2023/03/27 03:15:45;;;;;;;1.27;0.50;;;10.80;70.90;10.60;95188.00;;;;5131872;27;20221;-80
2023/03/27 03:18:14;;;;;;;0.60;0.30;;;10.70;70.90;10.60;95181.00;;;;5130074;27;20202;-80
2023/03/27 03:20:48;;;;;;;0.20;0.20;;;10.80;71.00;10.60;95184.00;;;;5118743;28;20217;-79
2023/03/27 03:23:15;;;;;;;0.40;0.33;;;10.80;71.10;10.60;95181.00;;;;5112504;27;20186;-79
2023/03/27 03:25:43;;;;;;;0.50;0.20;;;10.80;71.20;10.60;95188.00;;;;5111245;27;20263;-80
2023/03/27 03:28:11;;;;;;;0.90;0.50;;;10.80;71.10;10.60;95188.00;;;;5135153;27;20218;-79
2023/03/27 03:30:44;;;;;;;0.30;0.30;;;10.80;71.10;10.60;95188.00;;;;5139278;27;20225;-79
2023/03/27 03:33:13;;;;;;;1.13;0.47;;;10.80;71.10;10.60;95195.00;;;;5108866;27;20217;-79
2023/03/27 03:35:41;;;;;;;0.40;0.40;;;10.80;71.10;10.60;95196.00;;;;5137555;27;20218;-80
2023/03/27 03:38:09;;;;;;;0.33;0.33;;;10.80;71.20;10.60;95196.00;;;;5109444;28;20207;-81
2023/03/27 03:40:37;;;;;;;0.30;0.30;;;10.70;71.30;10.60;95193.00;;;;5139643;27;20218;-80
2023/03/27 03:43:05;;;;;;;0.30;0.30;;;10.80;71.30;10.60;95201.00;;;;5131755;27;20198;-79
2023/03/27 03:45:32;;;;;;;0.50;0.50;;;10.70;71.30;10.60;95203.00;;;;5143788;27;20198;-79
2023/03/27 03:48:01;;;;;;;0.40;0.40;;;10.80;71.50;10.60;95197.00;;;;5090385;28;20241;-80
2023/03/27 03:50:30;;;;;;;0.80;0.40;;;10.80;71.70;10.60;95206.00;;;;5113034;28;20215;-79
2023/03/27 03:52:58;;;;;;;0.30;0.30;;;10.70;71.70;10.60;95209.00;;;;5133800;28;20194;-79
2023/03/27 03:55:26;;;;;;;0.40;0.40;;;10.70;71.90;10.60;95211.00;;;;5108150;28;20675;-78
2023/03/27 03:57:54;;;;;;;0.40;0.40;;;10.70;71.90;10.50;95211.00;;;;5132464;28;20666;-79
2023/03/27 04:00:23;;;;;;;0.47;0.47;;;10.70;71.80;10.50;95216.00;;;;5123549;28;20690;-78
2023/03/27 04:02:53;;;;;;;0.37;0.37;;;10.70;71.90;10.50;95224.00;;;;5114325;28;20571;-79
2023/03/27 04:05:23;;;;;;;0.53;0.53;;;10.70;72.00;10.50;95226.00;;;;5133795;28;20194;-79
2023/03/27 04:07:50;;;;;;;0.40;0.40;;;10.70;72.00;10.50;95218.00;;;;5110927;27;20774;-79
2023/03/27 04:10:17;;;;;;;0.40;0.40;;;10.70;72.10;10.50;95227.00;;;;5124726;27;20681;-80
2023/03/27 04:12:47;;;;;;;0.37;0.37;;;10.60;72.20;10.40;95224.00;;;;5124596;27;20226;-80
2023/03/27 04:15:15;;;;;;;0.37;0.37;;;10.60;72.00;10.40;95231.00;;;;5113115;28;20198;-79
2023/03/27 04:17:43;;;;;;;0.60;0.50;;;10.60;72.10;10.40;95231.00;;;;5125140;27;20226;-79
2023/03/27 04:20:14;;;;;;;0.43;0.43;;;10.60;72.20;10.40;95236.00;;;;5129181;27;20309;-80
2023/03/27 04:22:46;;;;;;;0.60;0.60;;;10.60;72.30;10.30;95233.00;;;;5133782;27;20199;-79
2023/03/27 04:25:17;;;;;;;0.60;0.60;;;10.60;72.50;10.30;95242.00;;;;5126587;28;20211;-79
2023/03/27 04:27:44;;;;;;;0.40;0.40;;;10.60;72.40;10.30;95256.00;;;;5135489;27;20698;-78
2023/03/27 04:30:14;;;;;;;0.40;0.40;;;10.50;73.00;10.30;95251.00;;;;5105419;27;20202;-78
2023/03/27 04:32:42;;;;;;;0.30;0.30;;;10.50;72.20;10.20;95256.00;;;;5129428;27;20195;-78
2023/03/27 04:35:11;;;;;;;0.20;0.20;;;10.50;72.10;10.20;95262.00;;;;5133179;27;20199;-78
2023/03/27 04:37:41;;;;;;;0.23;0.23;;;10.40;72.10;10.20;95271.00;;;;5113707;27;20249;-78
2023/03/27 04:40:16;;;;;;;0.20;0.20;;;10.40;72.00;10.10;95275.00;;;;5110656;27;20674;-79
2023/03/27 04:42:44;;;;;;;0.10;0.10;;;10.40;72.00;10.00;95279.00;;;;5120453;27;20194;-78
2023/03/27 04:45:16;;;;;;;0.10;0.10;;;10.30;71.90;10.00;95286.00;;;;5139195;27;20216;-79
2023/03/27 04:47:44;;;;;;;0.20;0.00;;;10.30;71.70;9.90;95293.00;;;;5119765;27;20195;-79
2023/03/27 04:50:13;;;;;;;0.00;0.00;;;10.20;71.70;9.80;95295.00;;;;5127276;27;20241;-79
2023/03/27 04:52:41;;;;;;;0.10;0.10;;;10.20;71.60;9.80;95308.00;;;;5125380;27;20197;-78
2023/03/27 04:55:11;;;;;;;0.80;0.10;;;10.10;71.50;9.70;95311.00;;;;5118426;28;20213;-79
2023/03/27 04:57:40;;;;;;;0.10;0.10;;;10.10;71.60;9.60;95322.00;;;;5120593;27;20187;-79
2023/03/27 05:00:15;;;;;;;0.30;0.00;;;10.00;71.50;9.50;95335.00;;;;5122857;27;20221;-78
2023/03/27 05:02:43;;;;;;;0.10;0.10;;;9.90;71.50;9.50;95337.00;;;;5104583;27;20220;-80
2023/03/27 05:05:12;;;;;;;0.10;0.10;;;9.90;71.60;9.40;95353.00;;;;5125141;27;20198;-79
2023/03/27 05:07:44;;;;;;;0.10;0.10;;;9.80;71.60;9.40;95359.00;;;;5124498;27;20241;-79
2023/03/27 05:10:14;;;;;;;0.10;0.00;;;9.80;71.50;9.30;95376.00;;;;5127082;27;20268;-78
2023/03/27 05:12:44;;;;;;;0.10;0.10;;;9.70;71.90;9.30;95380.00;;;;5127579;27;20197;-79
2023/03/27 05:15:13;;;;;;;0.10;0.10;;;9.70;72.10;9.20;95389.00;;;;5139808;27;20197;-79
2023/03/27 05:17:42;;;;;;;0.10;0.10;;;9.60;71.80;9.10;95389.00;;;;5133838;27;20284;-78
2023/03/27 05:20:13;;;;;;;0.17;0.17;;;9.60;71.90;9.10;95413.00;;;;5123727;27;20218;-79
2023/03/27 05:22:41;;;;;;;0.10;0.10;;;9.50;72.00;9.10;95420.00;;;;5104897;27;20191;-79
2023/03/27 05:25:11;;;;;;;0.10;0.10;;;9.50;72.20;9.00;95429.00;;;;5118261;27;20202;-80
2023/03/27 05:27:45;;;;;;;0.40;0.40;;;9.40;72.20;9.00;95434.00;;;;5115293;27;20205;-79
2023/03/27 05:30:14;;;;;;;0.37;0.30;;;9.40;72.10;8.90;95444.00;;;;5122179;27;20218;-79
2023/03/27 05:32:47;;;;;;;0.23;0.23;;;9.30;72.00;8.80;95461.00;;;;5132516;27;20190;-79
2023/03/27 05:35:16;;;;;;;0.23;0.23;;;9.30;72.00;8.80;95468.00;;;;5123686;27;20221;-79
2023/03/27 05:37:47;;;;;;;0.20;0.20;;;9.20;72.10;8.80;95476.00;;;;5130422;27;20259;-79
2023/03/27 05:40:19;;;;;;;0.60;0.50;;;9.20;72.20;8.80;95475.00;;;;5122270;27;20214;-79
2023/03/27 05:42:50;;;;;;;0.40;0.40;;;9.20;72.20;8.80;95484.00;;;;5119205;27;20247;-80
2023/03/27 05:45:19;;;;;;;0.40;0.30;;;9.10;72.60;8.80;95502.00;;;;5113367;27;20695;-80
2023/03/27 05:47:48;;;;;;;0.30;0.30;;;9.10;72.40;8.80;95511.00;;;;5117000;27;20278;-81
2023/03/27 05:50:18;;;;;;;0.30;0.27;;;9.10;72.50;8.80;95518.00;;;;5106053;28;20291;-81
2023/03/27 05:52:46;;;;;;;0.30;0.30;;;9.10;72.90;8.80;95520.00;;;;5132639;27;20194;-81
2023/03/27 05:55:14;;;;;;;0.40;0.40;;;9.10;72.70;8.90;95528.00;;;;5118246;27;20223;-81
2023/03/27 05:57:42;;;;;;;0.50;0.40;;;9.10;72.80;8.90;95535.00;;;;5100032;28;20192;-80
2023/03/27 06:00:15;;;;;;;0.40;0.40;;;9.10;72.90;8.90;95553.00;;;;5099751;28;20674;-81
2023/03/27 06:02:43;;;;;;;0.50;0.50;;;9.10;72.80;8.90;95556.00;;;;5122133;27;20331;-80
2023/03/27 06:05:14;;;;;;;0.33;0.33;;;9.10;72.50;8.90;95568.00;;;;5126993;27;20226;-80
2023/03/27 06:07:42;;;;;;;0.40;0.40;;;9.10;72.60;8.90;95574.00;;;;5130169;27;20522;-81
2023/03/27 06:10:12;;;;;;;0.40;0.40;;;9.10;72.60;8.90;95582.00;;;;5133498;27;20225;-80
2023/03/27 06:12:40;;;;;;;0.67;0.40;;;9.10;72.30;8.90;95582.00;;;;5131209;27;20669;-81
2023/03/27 06:15:12;;;;;;;0.40;0.40;;;9.10;72.40;8.90;95600.00;;;;5123181;27;20195;-83
2023/03/27 06:17:42;;;;;;;0.40;0.40;;;9.10;72.40;9.00;95599.00;;;;5131983;27;20212;-81
2023/03/27 06:20:14;;;;;;;0.47;0.47;;;9.10;72.50;8.90;95622.00;;;;5110985;28;20243;-81
2023/03/27 06:22:46;;;;;;;0.20;0.20;;;9.10;73.30;9.00;95624.00;;;;5130882;27;20216;-82
2023/03/27 06:25:14;;;;;;;0.70;0.40;;;9.20;72.60;9.00;95628.00;;;;5136521;27;20266;-80
2023/03/27 06:27:47;;;;;;;0.47;0.43;;;9.20;72.50;9.00;95642.00;;;;5138745;27;20670;-81
2023/03/27 06:30:19;;;;;;;0.50;0.50;;;9.20;72.50;9.00;95646.00;;;;5143847;27;20222;-81
2023/03/27 06:32:49;;;;;;;0.60;0.60;;;9.10;72.40;8.90;95656.00;;;;5133872;27;20703;-82
2023/03/27 06:35:18;;;;;;;0.50;0.50;;;9.10;72.10;8.90;95666.00;;;;5138371;27;20234;-81
2023/03/27 06:37:49;;;;;;;0.93;0.50;;;9.10;72.30;8.90;95680.00;;;;5115721;28;20214;-81
2023/03/27 06:40:21;;;;;;;0.87;0.50;;;9.10;72.70;8.90;95676.00;;;;5111172;27;20598;-82
2023/03/27 06:42:54;;;;;;;0.40;0.40;;;9.10;72.70;8.90;95688.00;;;;5116479;27;20207;-81
2023/03/27 06:45:26;;;;;;;0.77;0.50;;;9.10;72.70;8.90;95686.00;;;;5115684;28;20249;-82
2023/03/27 06:47:56;;;;;;;0.60;0.30;;;9.10;72.60;8.90;95696.00;;;;5126240;27;20191;-82
2023/03/27 06:50:27;;;;;;;1.00;0.60;;;9.10;72.60;8.90;95696.00;;;;5118324;28;20218;-82
2023/03/27 06:52:54;;;;;;;0.40;0.40;;;9.10;73.30;8.90;95706.00;;;;5115855;27;20194;-82
2023/03/27 06:55:25;;;;;;;0.40;0.40;;;9.10;73.00;8.90;95723.00;;;;5095408;28;20242;-82
2023/03/27 06:57:56;;;;;;;0.40;0.40;;;9.10;73.10;8.90;95723.00;;;;5124990;27;20181;-82
2023/03/27 07:00:28;;;;;;;0.60;0.60;;;9.10;73.20;8.90;95732.00;;;;5113236;27;20344;-83
2023/03/27 07:03:01;;;;;;;0.43;0.40;;;9.10;73.30;8.90;95738.00;;;;5116570;27;20253;-86
2023/03/27 07:05:35;;;;;;;0.40;0.40;;;9.10;73.10;8.90;95742.00;;;;5115941;27;20285;-81
2023/03/27 07:08:05;;;;;;;0.40;0.40;;;9.00;73.00;8.90;95744.00;;;;5123331;27;20202;-81
2023/03/27 07:10:35;;;;;;;0.47;0.47;;;9.10;73.20;9.00;95756.00;;;;5114216;28;20246;-81
2023/03/27 07:13:02;;;;;;;0.60;0.60;;;9.10;73.50;9.00;95761.00;;;;5114420;27;20195;-81
2023/03/27 07:15:31;;;;;;;0.40;0.37;;;9.10;73.40;9.10;95775.00;;;;5100068;27;20221;-81
2023/03/27 07:18:01;;;;;;;0.50;0.50;;;9.10;73.30;9.00;95777.00;;;;5127863;27;20187;-82
2023/03/27 07:20:31;;;;;;;0.67;0.40;;;9.10;73.20;9.00;95789.00;;;;5113684;27;20214;-82
2023/03/27 07:23:00;;;;;;;0.40;0.40;;;9.10;73.20;9.00;95793.00;;;;5104594;27;20205;-79
2023/03/27 07:25:31;;;;;;;0.43;0.43;;;9.10;73.30;8.90;95798.00;;;;5124641;27;20671;-81
2023/03/27 07:27:59;;;;;;;0.50;0.50;;;9.10;73.20;8.90;95799.00;;;;5113784;28;20221;-80
2023/03/27 07:30:27;;;;;;;0.50;0.50;;;9.10;73.30;8.90;95802.00;;;;5113573;27;20662;-81
2023/03/27 07:32:57;;;;;;;0.50;0.50;;;9.10;73.20;8.90;95812.00;;;;5115462;27;20230;-81
2023/03/27 07:35:25;;;;;;;0.67;0.67;;;9.10;73.20;8.90;95816.00;;;;5109696;27;20191;-81
2023/03/27 07:37:54;;;;;;;0.70;0.70;;;9.10;73.50;8.80;95829.00;;;;5113751;28;20780;-81
2023/03/27 07:40:22;;;;;;;1.10;1.00;;;9.10;73.20;8.80;95843.00;;;;5119032;27;20219;-82
2023/03/27 07:42:52;;;;;;;0.80;0.80;;;9.10;73.10;8.80;95858.00;;;;5123949;27;20216;-82
2023/03/27 07:45:22;;;;;;;0.50;0.50;;;9.10;73.00;8.80;95871.00;;;;5117769;27;20265;-81
2023/03/27 07:47:50;;;;;;;0.40;0.40;;;9.10;72.80;8.70;95894.00;;;;5119592;27;20198;-82
2023/03/27 07:50:22;;;;;;;1.40;0.50;;;9.00;72.30;8.70;95872.00;;;;5103191;28;20218;-82
2023/03/27 07:52:50;;;;;;;0.47;0.47;;;9.00;71.70;8.50;95884.00;;;;5123147;28;20193;-82
2023/03/27 07:55:18;;;;;;;0.90;0.87;;;8.90;71.40;8.40;95882.00;;;;5136176;27;20190;-81
2023/03/27 07:57:49;;;;;;;1.13;0.70;;;8.80;71.10;8.40;95886.00;;;;5093380;28;20284;-82
2023/03/27 08:00:21;;;;;;;1.63;0.90;;;8.80;71.30;8.30;95893.00;;;;5122565;27;20217;-82
2023/03/27 08:02:49;;;;;;;0.83;0.80;;;8.70;71.70;8.40;95894.00;;;;5106565;28;20263;-81
2023/03/27 08:05:19;;;;;;;1.83;0.80;;;8.70;72.00;8.40;95906.00;;;;5115132;28;20205;-81
2023/03/27 08:07:47;;;;;;;0.90;0.90;;;8.70;72.60;8.50;95918.00;;;;5114339;28;20191;-83
2023/03/27 08:10:15;;;;;;;1.93;0.80;;;8.70;73.10;8.60;95917.00;;;;5101497;28;20313;-81
2023/03/27 08:12:43;;;;;;;0.90;0.90;;;8.70;73.20;8.60;95925.00;;;;5123073;28;20190;-81
2023/03/27 08:15:11;;;;;;;0.70;0.70;;;8.70;72.90;8.70;95927.00;;;;5113968;28;20282;-81
2023/03/27 08:17:38;;;;;;;1.50;1.17;;;8.70;73.00;8.70;95934.00;;;;5122586;28;20285;-80
2023/03/27 08:20:09;;;;;;;2.07;0.90;;;8.80;73.20;8.80;95941.00;;;;5116947;28;20733;-81
2023/03/27 08:22:39;;;;;;;0.67;0.67;;;8.80;73.00;8.80;95939.00;;;;5117598;28;20205;-82
2023/03/27 08:25:10;;;;;;;1.57;1.00;;;8.80;72.90;8.80;95956.00;;;;5136752;28;20205;-81
2023/03/27 08:27:37;;;;;;;1.43;0.90;;;8.90;72.60;8.90;95967.00;;;;5123353;28;20201;-83
2023/03/27 08:30:06;;;;;;;2.03;1.30;;;8.90;72.60;8.90;95959.00;;;;5124093;28;20690;-81
2023/03/27 08:32:34;;;;;;;1.77;0.80;;;8.90;72.30;8.90;95971.00;;;;5110974;27;20204;-81
2023/03/27 08:35:02;;;;;;;0.80;0.80;;;9.00;72.10;9.00;95976.00;;;;5105708;28;20227;-81
2023/03/27 08:37:29;;;;;;;1.10;0.80;;;9.00;71.90;9.00;95990.00;;;;5111294;28;20278;-82
2023/03/27 08:40:00;;;;;;;2.40;0.90;;;9.00;72.30;9.10;95983.00;;;;5112678;28;20222;-81
2023/03/27 08:42:36;;;;;;;1.20;0.73;;;9.10;72.30;9.20;95997.00;;;;5120820;28;20198;-81
2023/03/27 08:45:15;;;;;;;1.57;0.90;;;9.20;72.40;9.30;96013.00;;;;5109090;28;20586;-81
2023/03/27 08:47:52;;;;;;;1.83;1.23;;;9.20;72.00;9.40;96016.00;;;;5121035;27;20194;-81
2023/03/27 08:50:34;;;;;;;1.33;0.90;;;9.30;71.80;9.40;96022.00;;;;5110497;28;20227;-81
2023/03/27 08:53:07;;;;;;;1.20;0.90;;;9.40;71.60;9.40;96026.00;;;;5109435;28;20244;-80
2023/03/27 08:55:42;;;;;;;2.03;1.00;;;9.40;71.50;9.40;96033.00;;;;5130229;27;20194;-81
2023/03/27 08:58:19;;;;;;;1.43;0.90;;;9.40;72.00;9.40;96041.00;;;;5123654;27;20200;-80
2023/03/27 09:00:55;;;;;;;1.23;0.80;;;9.40;70.90;9.40;96045.00;;;;5126648;27;20213;-80
2023/03/27 09:03:28;;;;;;;1.13;0.93;;;9.40;71.60;9.40;96047.00;;;;5123710;27;20205;-81
2023/03/27 09:06:02;;;;;;;1.13;0.90;;;9.50;71.10;9.40;96059.00;;;;5126193;27;20193;-79
2023/03/27 09:08:46;;;;;;;1.47;0.87;;;9.50;70.90;9.40;96058.00;;;;5131955;27;20226;-81
2023/03/27 09:11:33;;;;;;;1.20;1.20;;;9.50;70.60;9.40;96070.00;;;;5120451;27;20214;-82
2023/03/27 09:14:08;;;;;;;1.10;1.00;;;9.50;70.70;9.40;96077.00;;;;5120132;27;20233;-81
2023/03/27 09:16:47;;;;;;;2.00;1.20;;;9.50;70.80;9.40;96082.00;;;;5127785;27;20266;-81
2023/03/27 09:19:28;;;;;;;1.77;0.97;;;9.50;70.70;9.40;96081.00;;;;5123811;28;20222;-80
2023/03/27 09:22:01;;;;;;;1.40;1.00;;;9.50;70.50;9.40;96084.00;;;;5105299;28;20211;-80
2023/03/27 09:24:33;;;;;;;1.63;1.17;;;9.50;70.40;9.40;96103.00;;;;5099983;28;20198;-81
2023/03/27 09:27:16;;;;;;;1.53;1.17;;;9.50;70.40;9.40;96102.00;;;;5097087;27;20195;-81
2023/03/27 09:29:44;;;;;;;1.33;1.17;;;9.50;70.00;9.40;96104.00;;;;5104395;27;20214;-81
2023/03/27 09:32:16;;;;;;;1.60;1.37;;;9.50;70.00;9.40;96109.00;;;;5117704;27;20195;-81
2023/03/27 09:34:44;;;;;;;2.80;1.37;;;9.50;70.00;9.40;96115.00;;;;5113783;27;20191;-81
2023/03/27 09:37:16;;;;;;;2.13;1.30;;;9.50;70.00;9.40;96116.00;;;;5114730;27;20248;-80
2023/03/27 09:39:50;;;;;;;2.20;1.70;;;9.50;69.90;9.40;96124.00;;;;5094187;28;20207;-81
2023/03/27 09:42:26;;;;;;;2.10;1.83;;;9.50;69.60;9.30;96119.00;;;;5101446;27;20355;-80
2023/03/27 09:44:58;;;;;;;2.67;1.50;;;9.50;69.50;9.40;96125.00;;;;5097435;27;20305;-79
2023/03/27 09:47:34;;;;;;;4.07;1.40;;;9.50;69.80;9.40;96131.00;;;;5098416;28;20199;-81
2023/03/27 09:50:22;;;;;;;2.10;1.60;;;9.50;70.30;9.50;96133.00;;;;5120563;27;20679;-80
2023/03/27 09:52:51;;;;;;;2.90;1.70;;;9.50;70.40;9.60;96142.00;;;;5124922;27;20257;-81
2023/03/27 09:55:29;;;;;;;1.53;1.43;;;9.50;70.30;9.60;96140.00;;;;5139428;27;20198;-80
2023/03/27 09:58:14;;;;;;;1.90;1.70;;;9.60;70.60;9.60;96132.00;;;;5123428;27;20230;-81
2023/03/27 10:00:42;;;;;;;2.50;1.53;;;9.60;70.30;9.60;96142.00;;;;5109401;27;20246;-80
2023/03/27 10:03:21;;;;;;;2.77;1.37;;;9.60;70.00;9.60;96152.00;;;;5091147;28;20203;-81
2023/03/27 10:06:06;;;;;;;2.83;1.47;;;9.70;70.20;9.60;96157.00;;;;5117948;27;20281;-81
2023/03/27 10:08:43;;;;;;;2.53;1.60;;;9.70;69.70;9.60;96159.00;;;;5124323;27;20186;-80
2023/03/27 10:11:17;;;;;;;2.83;1.77;;;9.70;69.20;9.60;96166.00;;;;5116625;27;20218;-80
2023/03/27 10:13:48;;;;;;;1.83;1.57;;;9.70;69.10;9.60;96168.00;;;;5112293;27;20774;-80
2023/03/27 10:16:18;;;;;;;4.43;1.83;;;9.70;69.20;9.60;96174.00;;;;5105676;27;20273;-81
2023/03/27 10:18:48;;;;;;;1.70;1.60;;;9.70;69.10;9.60;96179.00;;;;5110766;27;20661;-81
2023/03/27 10:21:27;;;;;;;1.93;1.83;;;9.70;69.20;9.70;96183.00;;;;5109916;27;20313;-81
2023/03/27 10:24:03;;;;;;;3.67;1.50;;;9.70;69.20;9.70;96184.00;;;;5105396;28;20228;-81
2023/03/27 10:26:36;;;;;;;2.73;1.50;;;9.70;69.00;9.70;96185.00;;;;5110451;27;20625;-81
2023/03/27 10:29:24;;;;;;;2.87;1.30;;;9.80;68.80;9.70;96196.00;;;;5112079;27;20302;-81
2023/03/27 10:31:54;;;;;;;1.93;1.60;;;9.80;68.20;9.70;96197.00;;;;5103546;27;20198;-81
2023/03/27 10:34:36;;;;;;;1.30;1.20;;;9.70;68.30;9.70;96201.00;;;;5111063;27;20259;-82
2023/03/27 10:37:21;;;;;;;1.90;1.30;;;9.80;68.10;9.60;96215.00;;;;5107136;28;20203;-81
2023/03/27 10:39:52;;;;;;;2.70;1.67;;;9.70;67.80;9.60;96209.00;;;;5103342;28;20230;-80
2023/03/27 10:42:21;;;;;;;2.13;1.60;;;9.70;68.10;9.60;96220.00;;;;5122806;27;20248;-81
2023/03/27 10:44:53;;;;;;;2.57;1.53;;;9.70;68.10;9.60;96227.00;;;;5121814;27;20202;-80
2023/03/27 10:47:27;;;;;;;2.40;1.40;;;9.70;68.30;9.70;96229.00;;;;5127158;27;20552;-80
2023/03/27 10:50:07;;;;;;;3.07;1.50;;;9.70;68.00;9.70;96232.00;;;;5104535;27;20222;-81
2023/03/27 10:52:50;;;;;;;2.07;1.20;;;9.80;67.80;9.70;96242.00;;;;5107364;28;20199;-80
2023/03/27 10:55:35;;;;;;;3.93;1.47;;;9.70;67.40;9.70;96243.00;;;;5118441;27;20194;-81
2023/03/27 10:58:20;;;;;;;2.37;2.00;;;9.70;66.70;9.80;96248.00;;;;5122228;27;20202;-80
2023/03/27 11:00:58;;;;;;;1.43;1.10;;;9.80;67.00;9.90;96246.00;;;;5119468;27;20244;-80
2023/03/27 11:03:37;;;;;;;2.70;1.40;;;9.80;67.20;9.90;96248.00;;;;5109265;27;20186;-80
2023/03/27 11:06:12;;;;;;;3.43;1.27;;;9.90;67.10;10.00;96246.00;;;;5114374;28;20201;-82
2023/03/27 11:09:04;;;;;;;1.57;1.10;;;9.90;66.50;10.00;96252.00;;;;5114904;28;20218;-83
2023/03/27 11:11:37;;;;;;;3.77;1.50;;;10.00;65.90;10.00;96263.00;;;;5121488;27;20259;-81
2023/03/27 11:14:13;;;;;;;2.50;1.27;;;10.00;66.30;10.20;96261.00;;;;5115077;27;20452;-82
2023/03/27 11:16:50;;;;;;;3.10;1.67;;;10.10;66.70;10.30;96252.00;;;;5123471;27;20641;-81
2023/03/27 11:19:41;;;;;;;1.20;1.10;;;10.20;66.10;10.30;96260.00;;;;5099925;27;20286;-82
2023/03/27 11:22:15;;;;;;;3.63;1.07;;;10.30;65.00;10.30;96278.00;;;;5116325;27;20198;-82
2023/03/27 11:24:52;;;;;;;1.30;1.13;;;10.30;65.10;10.30;96276.00;;;;5117253;27;20201;-79
2023/03/27 11:27:29;;;;;;;2.03;1.30;;;10.30;64.50;10.30;96277.00;;;;5111024;28;20198;-80
2023/03/27 11:30:09;;;;;;;0.90;0.80;;;10.30;63.90;10.20;96282.00;;;;5109842;27;20214;-80